Main page
METAR-TAF:

METAR-TAF

Airports :

N'Djamena International Airport

N'Djamena, Chad

latitude: 12-08N, longitude: 015-02E, elevation: 295 m

Current weather observation

The report was made 1 hour and 3 minutes ago, at 19:00 UTC
Wind 5 kt from the West/Northwest
Temperature 31°C
Humidity 18%
Pressure 1008 hPa
Visibility: 6000 m

METAR: FTTJ 281900Z 30005KT 6000 NSC 31/04 Q1008 NOSIG

Time: 21:03 (20:03 UTC)

Forecast

The report was made 3 hours and 3 minutes ago, at 17:00 UTC
Forecast valid from 28 at 18 UTC to 29 at 24 UTC
Wind 6 kt from the North/Northeast
Visibility: 7000 m
Temporary
from 29 at 05 UTC to 29 at 08 UTC
Visibility: 4000 m
widespread dust
Temporary
from 29 at 15 UTC to 29 at 19 UTC
Visibility: 4000 m
widespread dust

TAF: FTTJ 281700Z 2818/2924 02006KT 7000 NSC TEMPO 2905/2908 4000 DU TEMPO 2915/2919 4000 DU

Weather observations and forecasts of more than 4000 airports (METAR and TAF reports).

The available stations are represented by yellow and red dots on the map.

Hover mouse over dot to see the name of the station.

Then click to see weather observations and forecasts.

To change the map : click on the green buttons with a black cross to zoom in, on the green button with a dash to zoom out, or on the green arrows for adjacent maps.


METAR-TAF: